createdAt,value
2018-06-24T00:00:20.513Z,20.86
2018-06-24T00:01:20.353Z,20.86
2018-06-24T00:02:20.467Z,20.84
2018-06-24T00:03:20.605Z,20.86
2018-06-24T00:04:20.431Z,20.86
2018-06-24T00:05:20.335Z,20.85
2018-06-24T00:06:20.568Z,20.87
2018-06-24T00:07:20.546Z,20.85
2018-06-24T00:08:20.703Z,20.86
2018-06-24T00:09:20.469Z,20.86
2018-06-24T00:10:20.477Z,20.87
2018-06-24T00:11:20.520Z,20.84
2018-06-24T00:12:20.404Z,20.84
2018-06-24T00:13:20.647Z,20.83
2018-06-24T00:14:20.743Z,20.86
2018-06-24T00:15:20.643Z,20.86
2018-06-24T00:16:20.467Z,20.87
2018-06-24T00:17:20.410Z,20.85
2018-06-24T00:18:20.415Z,20.84
2018-06-24T00:19:20.317Z,20.84
2018-06-24T00:20:20.384Z,20.85
2018-06-24T00:21:20.367Z,20.83
2018-06-24T00:22:20.293Z,20.83
2018-06-24T00:23:20.324Z,20.83
2018-06-24T00:24:20.317Z,20.83
2018-06-24T00:25:20.387Z,20.84
2018-06-24T00:26:20.565Z,20.87
2018-06-24T00:27:20.417Z,20.84
2018-06-24T00:28:20.509Z,20.85
2018-06-24T00:29:20.380Z,20.84
2018-06-24T00:30:20.645Z,20.86
2018-06-24T00:31:20.408Z,20.83
2018-06-24T00:32:20.344Z,20.84
2018-06-24T00:33:20.677Z,20.85
2018-06-24T00:34:20.536Z,20.83
2018-06-24T00:35:20.863Z,20.85
2018-06-24T00:36:20.661Z,20.85
2018-06-24T00:37:20.355Z,20.84
2018-06-24T00:38:20.652Z,20.85
2018-06-24T00:39:20.382Z,20.87
2018-06-24T00:40:20.669Z,20.85
2018-06-24T00:41:20.431Z,20.84
2018-06-24T00:42:20.410Z,20.81
2018-06-24T00:43:20.560Z,20.84
2018-06-24T00:44:20.585Z,20.83
2018-06-24T00:45:20.386Z,20.83
2018-06-24T00:46:20.397Z,20.81
2018-06-24T00:47:20.436Z,20.81
2018-06-24T00:48:20.436Z,20.81
2018-06-24T00:49:20.485Z,20.81
2018-06-24T00:50:20.424Z,20.83
2018-06-24T00:51:20.559Z,20.84
2018-06-24T00:52:20.406Z,20.81
2018-06-24T00:53:20.282Z,20.84
2018-06-24T00:54:20.465Z,20.83
2018-06-24T00:55:20.304Z,20.8
2018-06-24T00:56:20.465Z,20.8
2018-06-24T00:57:20.380Z,20.81
2018-06-24T00:58:20.557Z,20.81
2018-06-24T00:59:20.549Z,20.81
2018-06-24T01:00:20.380Z,20.8
2018-06-24T01:01:20.457Z,20.79
2018-06-24T01:02:20.363Z,20.8
2018-06-24T01:03:20.483Z,20.79
2018-06-24T01:04:20.291Z,20.8
2018-06-24T01:05:20.497Z,20.81
2018-06-24T01:06:20.318Z,20.83
2018-06-24T01:07:20.731Z,20.81
2018-06-24T01:08:20.365Z,20.83
2018-06-24T01:09:20.456Z,20.81
2018-06-24T01:10:20.642Z,20.81
2018-06-24T01:11:20.598Z,20.81
2018-06-24T01:12:20.480Z,20.81
2018-06-24T01:13:20.267Z,20.79
2018-06-24T01:14:20.542Z,20.81
2018-06-24T01:15:20.403Z,20.81
2018-06-24T01:16:20.657Z,20.81
2018-06-24T01:17:20.327Z,20.81
2018-06-24T01:18:20.374Z,20.79
2018-06-24T01:19:20.647Z,20.81
2018-06-24T01:20:20.640Z,20.81
2018-06-24T01:21:20.306Z,20.79
2018-06-24T01:22:20.367Z,20.79
2018-06-24T01:23:20.344Z,20.78
2018-06-24T01:24:20.517Z,20.79
2018-06-24T01:25:20.386Z,20.76
2018-06-24T01:26:20.649Z,20.79
2018-06-24T01:27:20.365Z,20.79
2018-06-24T01:28:20.627Z,20.77
2018-06-24T01:29:20.440Z,20.79
2018-06-24T01:30:20.590Z,20.8
2018-06-24T01:31:20.295Z,20.77
2018-06-24T01:32:20.426Z,20.77
2018-06-24T01:33:20.468Z,20.75
2018-06-24T01:34:20.402Z,20.79
2018-06-24T01:35:20.431Z,20.77
2018-06-24T01:36:20.540Z,20.78
2018-06-24T01:37:20.380Z,20.79
2018-06-24T01:38:20.503Z,20.78
2018-06-24T01:39:20.304Z,20.78
2018-06-24T01:40:20.309Z,20.79
2018-06-24T01:41:20.480Z,20.79
2018-06-24T01:42:20.355Z,20.8
2018-06-24T01:43:20.451Z,20.78
2018-06-24T01:44:20.612Z,20.79
2018-06-24T01:45:20.446Z,20.79
2018-06-24T01:46:20.403Z,20.78
2018-06-24T01:47:20.488Z,20.8
2018-06-24T01:48:20.508Z,20.79
2018-06-24T01:49:20.414Z,20.79
2018-06-24T01:50:20.270Z,20.77
2018-06-24T01:51:20.362Z,20.78
2018-06-24T01:52:20.347Z,20.78
2018-06-24T01:53:20.492Z,20.78
2018-06-24T01:54:20.690Z,20.78
2018-06-24T01:55:20.324Z,20.79
2018-06-24T01:56:20.433Z,20.77
2018-06-24T01:57:20.399Z,20.75
2018-06-24T01:58:30.417Z,20.76
2018-06-24T01:59:20.495Z,20.77
2018-06-24T02:00:20.329Z,20.77
2018-06-24T02:01:20.394Z,20.77
2018-06-24T02:02:20.435Z,20.77
2018-06-24T02:03:20.510Z,20.78
2018-06-24T02:04:20.459Z,20.76
2018-06-24T02:05:20.461Z,20.78
2018-06-24T02:06:20.624Z,20.77
2018-06-24T02:07:20.365Z,20.75
2018-06-24T02:08:20.531Z,20.76
2018-06-24T02:09:20.450Z,20.77
2018-06-24T02:10:20.472Z,20.77
2018-06-24T02:11:20.535Z,20.77
2018-06-24T02:12:20.343Z,20.77
2018-06-24T02:13:20.612Z,20.78
2018-06-24T02:14:20.640Z,20.75
2018-06-24T02:15:20.476Z,20.77
2018-06-24T02:16:20.360Z,20.75
2018-06-24T02:17:20.548Z,20.79
2018-06-24T02:18:20.626Z,20.75
2018-06-24T02:19:20.648Z,20.75
2018-06-24T02:20:20.970Z,20.75
2018-06-24T02:21:20.539Z,20.75
2018-06-24T02:22:20.526Z,20.76
2018-06-24T02:23:20.457Z,20.75
2018-06-24T02:24:20.368Z,20.74
2018-06-24T02:25:20.385Z,20.76
2018-06-24T02:26:20.785Z,20.75
2018-06-24T02:27:20.465Z,20.75
2018-06-24T02:28:20.616Z,20.75
2018-06-24T02:29:20.316Z,20.73
2018-06-24T02:30:20.629Z,20.75
2018-06-24T02:31:20.446Z,20.78
2018-06-24T02:32:20.509Z,20.78
2018-06-24T02:33:20.486Z,20.75
2018-06-24T02:34:20.430Z,20.77
2018-06-24T02:35:20.681Z,20.75
2018-06-24T02:36:21.136Z,20.75
2018-06-24T02:37:20.329Z,20.73
2018-06-24T02:38:20.536Z,20.75
2018-06-24T02:39:20.385Z,20.75
2018-06-24T02:40:20.753Z,20.76
2018-06-24T02:41:20.349Z,20.74
2018-06-24T02:42:20.657Z,20.75
2018-06-24T02:43:20.298Z,20.75
2018-06-24T02:44:20.473Z,20.76
2018-06-24T02:45:20.660Z,20.76
2018-06-24T02:46:20.716Z,20.75
2018-06-24T02:47:20.634Z,20.75
2018-06-24T02:48:20.354Z,20.74
2018-06-24T02:49:20.369Z,20.73
2018-06-24T02:50:20.435Z,20.75
2018-06-24T02:51:20.498Z,20.75
2018-06-24T02:52:20.301Z,20.75
2018-06-24T02:53:20.419Z,20.73
2018-06-24T02:54:20.443Z,20.73
2018-06-24T02:55:20.335Z,20.71
2018-06-24T02:56:20.613Z,20.73
2018-06-24T02:57:20.649Z,20.74
2018-06-24T02:58:20.491Z,20.72
2018-06-24T02:59:20.356Z,20.74
2018-06-24T03:00:20.356Z,20.71
2018-06-24T03:01:20.332Z,20.74
2018-06-24T03:02:20.508Z,20.73
2018-06-24T03:03:20.443Z,20.74
2018-06-24T03:04:20.582Z,20.73
2018-06-24T03:05:20.376Z,20.71
2018-06-24T03:06:20.410Z,20.72
2018-06-24T03:07:20.361Z,20.72
2018-06-24T03:08:20.549Z,20.74
2018-06-24T03:09:20.480Z,20.74
2018-06-24T03:10:20.357Z,20.75
2018-06-24T03:11:20.459Z,20.71
2018-06-24T03:12:20.482Z,20.76
2018-06-24T03:13:20.303Z,20.75
2018-06-24T03:14:20.452Z,20.72
2018-06-24T03:15:20.501Z,20.73
2018-06-24T03:16:20.378Z,20.75
2018-06-24T03:17:20.413Z,20.72
2018-06-24T03:18:20.345Z,20.73
2018-06-24T03:19:20.226Z,20.73
2018-06-24T03:20:20.367Z,20.74
2018-06-24T03:21:20.425Z,20.74
2018-06-24T03:22:20.559Z,20.75
2018-06-24T03:23:20.582Z,20.74
2018-06-24T03:24:20.311Z,20.71
2018-06-24T03:25:20.418Z,20.73
2018-06-24T03:26:20.292Z,20.73
2018-06-24T03:27:20.482Z,20.73
2018-06-24T03:28:20.385Z,20.73
2018-06-24T03:29:20.654Z,20.71
2018-06-24T03:30:20.355Z,20.73
2018-06-24T03:31:20.350Z,20.72
2018-06-24T03:32:20.292Z,20.73
2018-06-24T03:33:20.389Z,20.73
2018-06-24T03:34:20.669Z,20.71
2018-06-24T03:35:20.465Z,20.73
2018-06-24T03:36:20.596Z,20.73
2018-06-24T03:37:20.249Z,20.73
2018-06-24T03:38:20.332Z,20.71
2018-06-24T03:39:20.338Z,20.73
2018-06-24T03:40:20.518Z,20.7
2018-06-24T03:41:20.512Z,20.71
2018-06-24T03:42:20.314Z,20.69
2018-06-24T03:43:20.518Z,20.71
2018-06-24T03:44:20.457Z,20.7
2018-06-24T03:45:20.497Z,20.68
2018-06-24T03:46:20.262Z,20.68
2018-06-24T03:47:20.292Z,20.66
2018-06-24T03:48:20.470Z,20.68
2018-06-24T03:49:20.412Z,20.7
2018-06-24T03:50:20.426Z,20.7
2018-06-24T03:51:20.635Z,20.69
2018-06-24T03:52:20.502Z,20.71
2018-06-24T03:53:20.479Z,20.7
2018-06-24T03:54:20.374Z,20.71
2018-06-24T03:55:20.279Z,20.7
2018-06-24T03:56:20.374Z,20.72
2018-06-24T03:57:20.551Z,20.7
2018-06-24T03:58:20.436Z,20.68
2018-06-24T03:59:20.661Z,20.7
2018-06-24T04:00:20.614Z,20.7
2018-06-24T04:01:20.375Z,20.7
2018-06-24T04:02:20.335Z,20.69
2018-06-24T04:03:20.393Z,20.71
2018-06-24T04:04:20.364Z,20.68
2018-06-24T04:05:20.573Z,20.66
2018-06-24T04:06:20.403Z,20.7
2018-06-24T04:07:20.623Z,20.7
2018-06-24T04:08:20.456Z,20.69
2018-06-24T04:09:20.384Z,20.66
2018-06-24T04:10:20.639Z,20.66
2018-06-24T04:11:20.538Z,20.69
2018-06-24T04:12:20.454Z,20.7
2018-06-24T04:13:20.277Z,20.68
2018-06-24T04:14:20.463Z,20.66
2018-06-24T04:15:20.306Z,20.68
2018-06-24T04:16:20.636Z,20.66
2018-06-24T04:17:20.510Z,20.69
2018-06-24T04:18:20.550Z,20.7
2018-06-24T04:19:20.473Z,20.66
2018-06-24T04:20:20.481Z,20.69
2018-06-24T04:21:20.349Z,20.68
2018-06-24T04:22:30.381Z,20.66
2018-06-24T04:23:20.515Z,20.66
2018-06-24T04:24:20.349Z,20.66
2018-06-24T04:25:20.487Z,20.69
2018-06-24T04:26:20.460Z,20.66
2018-06-24T04:27:20.329Z,20.68
2018-06-24T04:28:20.499Z,20.66
2018-06-24T04:29:20.439Z,20.69
2018-06-24T04:30:20.361Z,20.66
2018-06-24T04:31:20.313Z,20.66
2018-06-24T04:32:20.496Z,20.68
2018-06-24T04:33:20.330Z,20.66
2018-06-24T04:34:20.628Z,20.68
2018-06-24T04:35:20.428Z,20.66
2018-06-24T04:36:20.611Z,20.66
2018-06-24T04:37:20.364Z,20.65
2018-06-24T04:38:20.235Z,20.65
2018-06-24T04:39:20.569Z,20.66
2018-06-24T04:40:20.279Z,20.65
2018-06-24T04:41:20.502Z,20.66
2018-06-24T04:42:20.388Z,20.66
2018-06-24T04:43:20.449Z,20.66
2018-06-24T04:44:20.306Z,20.66
2018-06-24T04:45:20.628Z,20.65
2018-06-24T04:46:20.456Z,20.65
2018-06-24T04:47:20.421Z,20.65
2018-06-24T04:48:20.345Z,20.64
2018-06-24T04:49:20.284Z,20.64
2018-06-24T04:50:20.324Z,20.65
2018-06-24T04:51:20.545Z,20.65
2018-06-24T04:52:20.693Z,20.64
2018-06-24T04:53:20.255Z,20.65
2018-06-24T04:54:20.304Z,20.66
2018-06-24T04:55:20.365Z,20.68
2018-06-24T04:56:20.492Z,20.66
2018-06-24T04:57:20.358Z,20.66
2018-06-24T04:58:20.300Z,20.66
2018-06-24T04:59:20.448Z,20.65
2018-06-24T05:00:20.432Z,20.64
2018-06-24T05:01:20.635Z,20.64
2018-06-24T05:02:20.255Z,20.66
2018-06-24T05:03:20.423Z,20.66
2018-06-24T05:04:20.302Z,20.68
2018-06-24T05:05:20.506Z,20.66
2018-06-24T05:06:20.606Z,20.65
2018-06-24T05:07:20.435Z,20.64
2018-06-24T05:08:20.677Z,20.66
2018-06-24T05:09:20.513Z,20.66
2018-06-24T05:10:20.409Z,20.64
2018-06-24T05:11:20.279Z,20.64
2018-06-24T05:12:20.643Z,20.68
2018-06-24T05:13:20.381Z,20.66
2018-06-24T05:14:20.375Z,20.65
2018-06-24T05:15:20.506Z,20.64
2018-06-24T05:16:20.521Z,20.66
2018-06-24T05:17:20.499Z,20.66
2018-06-24T05:18:20.303Z,20.65
2018-06-24T05:19:20.244Z,20.64
2018-06-24T05:20:20.232Z,20.64
2018-06-24T05:21:20.485Z,20.66
2018-06-24T05:22:20.302Z,20.64
2018-06-24T05:23:20.356Z,20.63
2018-06-24T05:24:20.217Z,20.66
2018-06-24T05:25:20.572Z,20.66
2018-06-24T05:26:20.427Z,20.63
2018-06-24T05:27:20.485Z,20.66
2018-06-24T05:28:20.308Z,20.64
2018-06-24T05:29:20.332Z,20.65
2018-06-24T05:30:20.315Z,20.64
2018-06-24T05:31:20.456Z,20.65
2018-06-24T05:32:20.512Z,20.63
2018-06-24T05:33:20.316Z,20.65
2018-06-24T05:34:20.240Z,20.65
2018-06-24T05:35:20.366Z,20.66
2018-06-24T05:36:20.424Z,20.64
2018-06-24T05:37:20.424Z,20.63
2018-06-24T05:38:20.196Z,20.63
2018-06-24T05:39:20.408Z,20.63
2018-06-24T05:40:20.506Z,20.65
2018-06-24T05:41:20.578Z,20.64
2018-06-24T05:42:20.411Z,20.69
2018-06-24T05:43:20.337Z,20.63
2018-06-24T05:44:20.490Z,20.65
2018-06-24T05:45:20.291Z,20.65
2018-06-24T05:46:20.431Z,20.64
2018-06-24T05:47:20.285Z,20.65
2018-06-24T05:48:20.431Z,20.68
2018-06-24T05:49:20.254Z,20.66
2018-06-24T05:50:20.326Z,20.66
2018-06-24T05:51:20.379Z,20.68
2018-06-24T05:52:20.420Z,20.64
2018-06-24T05:53:20.259Z,20.66
2018-06-24T05:54:20.582Z,20.68
2018-06-24T05:55:20.704Z,20.66
2018-06-24T05:56:20.221Z,20.68
2018-06-24T05:57:20.217Z,20.66
2018-06-24T05:58:20.434Z,20.7
2018-06-24T05:59:20.403Z,20.66
2018-06-24T06:00:20.431Z,20.68
2018-06-24T06:01:20.479Z,20.66
2018-06-24T06:02:20.293Z,20.69
2018-06-24T06:03:20.408Z,20.69
2018-06-24T06:04:20.439Z,20.69
2018-06-24T06:05:20.299Z,20.69
2018-06-24T06:06:20.346Z,20.65
2018-06-24T06:07:20.469Z,20.7
2018-06-24T06:08:20.502Z,20.68
2018-06-24T06:09:20.341Z,20.69
2018-06-24T06:10:21.053Z,20.66
2018-06-24T06:11:20.460Z,20.66
2018-06-24T06:12:20.359Z,20.7
2018-06-24T06:13:20.386Z,20.69
2018-06-24T06:14:20.236Z,20.66
2018-06-24T06:15:20.257Z,20.69
2018-06-24T06:16:20.316Z,20.65
2018-06-24T06:17:20.290Z,20.65
2018-06-24T06:18:20.297Z,20.68
2018-06-24T06:19:20.446Z,20.69
2018-06-24T06:20:20.391Z,20.68
2018-06-24T06:21:20.331Z,20.66
2018-06-24T06:22:20.381Z,20.68
2018-06-24T06:23:20.256Z,20.65
2018-06-24T06:24:20.454Z,20.65
2018-06-24T06:25:20.455Z,20.65
2018-06-24T06:26:20.236Z,20.65
2018-06-24T06:27:20.316Z,20.68
2018-06-24T06:28:20.249Z,20.7
2018-06-24T06:29:20.423Z,20.68
2018-06-24T06:30:21.755Z,20.68
2018-06-24T06:31:20.238Z,20.66
2018-06-24T06:32:20.351Z,20.69
2018-06-24T06:33:20.370Z,20.66
2018-06-24T06:34:20.481Z,20.66
2018-06-24T06:35:20.312Z,20.66
2018-06-24T06:36:20.329Z,20.66
2018-06-24T06:37:20.386Z,20.66
2018-06-24T06:38:20.448Z,20.66
2018-06-24T06:39:20.385Z,20.69
2018-06-24T06:40:20.457Z,20.68
2018-06-24T06:41:20.247Z,20.68
2018-06-24T06:42:20.358Z,20.66
2018-06-24T06:43:20.329Z,20.69
2018-06-24T06:44:20.333Z,20.69
2018-06-24T06:45:21.312Z,20.69
2018-06-24T06:46:20.379Z,20.65
2018-06-24T06:47:20.329Z,20.66
2018-06-24T06:48:20.404Z,20.7
2018-06-24T06:49:20.355Z,20.66
2018-06-24T06:50:20.312Z,20.68
2018-06-24T06:51:20.324Z,20.7
2018-06-24T06:52:20.425Z,20.65
2018-06-24T06:53:20.330Z,20.66
2018-06-24T06:54:20.399Z,20.69
2018-06-24T06:55:20.466Z,20.69
2018-06-24T06:56:20.335Z,20.68
2018-06-24T06:57:20.340Z,20.7
2018-06-24T06:58:20.430Z,20.72
2018-06-24T06:59:20.348Z,20.68
2018-06-24T07:00:20.370Z,20.68
2018-06-24T07:01:20.691Z,20.71
2018-06-24T07:02:20.693Z,20.72
2018-06-24T07:03:20.778Z,20.57
2018-06-24T07:04:20.385Z,20.49
2018-06-24T07:05:20.703Z,20.42
2018-06-24T07:06:20.604Z,20.34
2018-06-24T07:07:20.467Z,20.34
2018-06-24T07:08:20.467Z,20.3
2018-06-24T07:09:20.426Z,20.31
2018-06-24T07:10:20.611Z,20.27
2018-06-24T07:11:20.442Z,20.22
2018-06-24T07:12:20.441Z,20.16
2018-06-24T07:13:20.756Z,20.09
2018-06-24T07:14:21.412Z,20.12
2018-06-24T07:15:20.460Z,20.05
2018-06-24T07:16:20.471Z,20.04
2018-06-24T07:17:20.395Z,20.02
2018-06-24T07:18:20.485Z,19.92
2018-06-24T07:19:20.481Z,19.97
2018-06-24T07:20:20.427Z,19.91
2018-06-24T07:21:20.504Z,19.92
2018-06-24T07:22:20.466Z,19.89
2018-06-24T07:23:20.633Z,19.94
2018-06-24T07:24:20.517Z,19.94
2018-06-24T07:25:20.523Z,19.97
2018-06-24T07:26:20.529Z,19.91
2018-06-24T07:27:20.542Z,19.92
2018-06-24T07:28:20.505Z,19.92
2018-06-24T07:29:20.733Z,19.89
2018-06-24T07:30:20.548Z,19.96
2018-06-24T07:31:20.487Z,19.99
2018-06-24T07:32:20.557Z,20
2018-06-24T07:33:21.053Z,20
2018-06-24T07:34:20.668Z,20.06
2018-06-24T07:35:20.524Z,20.07
2018-06-24T07:36:20.548Z,20.09
2018-06-24T07:37:20.487Z,20.07
2018-06-24T07:38:20.491Z,20.12
2018-06-24T07:39:21.062Z,20.07
2018-06-24T07:40:20.486Z,20.1
2018-06-24T07:41:20.517Z,20.09
2018-06-24T07:42:20.585Z,20.14
2018-06-24T07:43:20.561Z,20.15
2018-06-24T07:44:20.352Z,20.16
2018-06-24T07:45:20.615Z,20.15
2018-06-24T07:46:20.581Z,20.19
2018-06-24T07:47:20.591Z,20.2
2018-06-24T07:48:20.602Z,20.16
2018-06-24T07:49:20.579Z,20.16
2018-06-24T07:50:21.071Z,20.2
2018-06-24T07:51:20.667Z,20.19
2018-06-24T07:52:20.621Z,20.25
2018-06-24T07:53:20.432Z,20.25
2018-06-24T07:54:20.648Z,20.2
2018-06-24T07:55:20.625Z,20.15
2018-06-24T07:56:20.432Z,20.19
2018-06-24T07:57:20.991Z,20.2
2018-06-24T07:58:20.667Z,20.27
2018-06-24T07:59:20.381Z,20.25
2018-06-24T08:00:20.638Z,20.26
2018-06-24T08:01:20.701Z,20.2
2018-06-24T08:02:20.209Z,20.21
2018-06-24T08:03:20.755Z,20.2
2018-06-24T08:04:20.789Z,20.18
2018-06-24T08:05:20.931Z,20.21
2018-06-24T08:06:20.299Z,20.24
2018-06-24T08:07:20.518Z,20.2
2018-06-24T08:08:20.490Z,20.16
2018-06-24T08:09:20.787Z,20.18
2018-06-24T08:10:20.841Z,20.16
2018-06-24T08:11:20.556Z,20.22
2018-06-24T08:12:20.547Z,20.17
2018-06-24T08:13:20.300Z,20.2
2018-06-24T08:14:20.339Z,20.19
2018-06-24T08:15:20.554Z,20.18
2018-06-24T08:16:20.263Z,20.24
2018-06-24T08:17:20.538Z,20.2
2018-06-24T08:18:20.248Z,20.19
2018-06-24T08:19:20.537Z,20.22
2018-06-24T08:20:20.295Z,20.2
2018-06-24T08:21:20.304Z,20.16
2018-06-24T08:22:20.326Z,20.13
2018-06-24T08:23:20.294Z,20.2
2018-06-24T08:24:20.285Z,20.15
2018-06-24T08:25:20.175Z,20.14
2018-06-24T08:26:20.378Z,20.18
2018-06-24T08:27:20.539Z,20.16
2018-06-24T08:28:20.356Z,20.17
2018-06-24T08:29:20.256Z,20.18
2018-06-24T08:30:20.421Z,20.21
2018-06-24T08:31:20.335Z,20.2
2018-06-24T08:32:20.380Z,20.18
2018-06-24T08:33:20.647Z,20.19
2018-06-24T08:34:20.379Z,20.24
2018-06-24T08:35:20.352Z,20.21
2018-06-24T08:36:20.276Z,20.22
2018-06-24T08:37:20.415Z,20.22
2018-06-24T08:38:45.411Z,20.19
2018-06-24T08:39:20.685Z,20.2
2018-06-24T08:40:20.285Z,20.25
2018-06-24T08:41:20.359Z,20.26
2018-06-24T08:42:20.234Z,20.26
2018-06-24T08:43:20.562Z,20.25
2018-06-24T08:44:20.404Z,20.24
2018-06-24T08:45:20.504Z,20.24
2018-06-24T08:46:20.497Z,20.21
2018-06-24T08:47:20.608Z,20.22
2018-06-24T08:48:20.433Z,20.18
2018-06-24T08:49:20.391Z,20.22
2018-06-24T08:50:20.311Z,20.2
2018-06-24T08:51:20.448Z,20.17
2018-06-24T08:52:20.356Z,20.21
2018-06-24T08:53:20.232Z,20.26
2018-06-24T08:54:20.640Z,20.21
2018-06-24T08:55:20.587Z,20.2
2018-06-24T08:56:20.247Z,20.22
2018-06-24T08:57:20.471Z,20.2
2018-06-24T08:58:20.477Z,20.18
2018-06-24T08:59:20.284Z,20.2
2018-06-24T09:00:20.312Z,20.21
2018-06-24T09:01:20.441Z,20.2
2018-06-24T09:02:20.343Z,20.21
2018-06-24T09:03:20.505Z,20.27
2018-06-24T09:04:20.540Z,20.24
2018-06-24T09:05:20.390Z,20.22
2018-06-24T09:06:20.353Z,20.25
2018-06-24T09:07:20.458Z,20.22
2018-06-24T09:08:20.280Z,20.22
2018-06-24T09:09:20.395Z,20.27
2018-06-24T09:10:20.308Z,20.22
2018-06-24T09:11:20.306Z,20.22
2018-06-24T09:12:20.364Z,20.19
2018-06-24T09:13:20.379Z,20.24
2018-06-24T09:14:20.533Z,20.25
2018-06-24T09:15:20.258Z,20.25
2018-06-24T09:16:20.314Z,20.24
2018-06-24T09:17:20.282Z,20.21
2018-06-24T09:18:20.495Z,20.25
2018-06-24T09:19:20.286Z,20.24
2018-06-24T09:20:20.430Z,20.24
2018-06-24T09:21:20.773Z,20.27
2018-06-24T09:22:20.524Z,20.25
2018-06-24T09:23:20.372Z,20.28
2018-06-24T09:24:20.303Z,20.25
2018-06-24T09:25:20.588Z,20.28
2018-06-24T09:26:20.729Z,20.27
2018-06-24T09:27:20.452Z,20.26
2018-06-24T09:28:20.324Z,20.28
2018-06-24T09:29:20.405Z,20.28
2018-06-24T09:30:20.338Z,20.32
2018-06-24T09:31:20.397Z,20.32
2018-06-24T09:32:20.368Z,20.27
2018-06-24T09:33:20.378Z,20.25
2018-06-24T09:34:20.533Z,20.24
2018-06-24T09:35:20.424Z,20.22
2018-06-24T09:36:20.426Z,20.25
2018-06-24T09:37:20.399Z,20.27
2018-06-24T09:38:20.496Z,20.28
2018-06-24T09:39:20.435Z,20.3
2018-06-24T09:40:20.410Z,20.3
2018-06-24T09:41:20.462Z,20.33
2018-06-24T09:42:20.568Z,20.34
2018-06-24T09:43:20.603Z,20.33
2018-06-24T09:44:20.376Z,20.36
2018-06-24T09:45:20.446Z,20.34
2018-06-24T09:46:20.564Z,20.35
2018-06-24T09:47:20.466Z,20.36
2018-06-24T09:48:20.456Z,20.4
2018-06-24T09:49:20.471Z,20.4
2018-06-24T09:50:20.454Z,20.42
2018-06-24T09:51:20.499Z,20.43
2018-06-24T09:52:20.442Z,20.46
2018-06-24T09:53:20.477Z,20.46
2018-06-24T09:54:20.496Z,20.48
2018-06-24T09:55:20.669Z,20.48
2018-06-24T09:56:20.613Z,20.51
2018-06-24T09:57:20.532Z,20.54
2018-06-24T09:58:20.518Z,20.54
2018-06-24T09:59:20.542Z,20.54
2018-06-24T10:00:20.531Z,20.55
2018-06-24T10:01:20.483Z,20.56
2018-06-24T10:02:20.571Z,20.57
2018-06-24T10:03:20.676Z,20.58
2018-06-24T10:04:20.454Z,20.57
2018-06-24T10:05:20.567Z,20.58
2018-06-24T10:06:20.595Z,20.61
2018-06-24T10:07:20.314Z,20.62
2018-06-24T10:08:20.560Z,20.64
2018-06-24T10:09:20.516Z,20.64
2018-06-24T10:10:20.575Z,20.62
2018-06-24T10:11:20.499Z,20.64
2018-06-24T10:12:20.356Z,20.63
2018-06-24T10:13:20.344Z,20.65
2018-06-24T10:14:20.609Z,20.69
2018-06-24T10:15:20.359Z,20.77
2018-06-24T10:16:20.384Z,20.76
2018-06-24T10:17:20.607Z,20.76
2018-06-24T10:18:20.576Z,20.72
2018-06-24T10:19:20.739Z,20.73
2018-06-24T10:20:21.994Z,20.73
2018-06-24T10:21:20.121Z,20.73
2018-06-24T10:22:20.589Z,20.74
2018-06-24T10:23:20.404Z,20.74
2018-06-24T10:24:20.443Z,20.76
2018-06-24T10:25:20.731Z,20.75
2018-06-24T10:26:20.365Z,20.76
2018-06-24T10:27:20.624Z,20.76
2018-06-24T10:28:20.631Z,20.76
2018-06-24T10:29:20.807Z,20.78
2018-06-24T10:30:20.166Z,20.77
2018-06-24T10:31:20.648Z,20.77
2018-06-24T10:32:20.766Z,20.76
2018-06-24T10:33:20.498Z,20.78
2018-06-24T10:34:20.484Z,20.79
2018-06-24T10:35:20.790Z,20.77
2018-06-24T10:36:20.441Z,20.79
2018-06-24T10:37:20.226Z,20.78
2018-06-24T10:38:20.529Z,20.79
2018-06-24T10:39:20.215Z,20.78
2018-06-24T10:40:20.854Z,20.8
2018-06-24T10:41:20.202Z,20.84
2018-06-24T10:42:20.254Z,20.81
2018-06-24T10:43:20.821Z,20.83
2018-06-24T10:44:20.204Z,20.81
2018-06-24T10:45:20.542Z,20.83
2018-06-24T10:46:20.514Z,20.81
2018-06-24T10:47:20.557Z,20.84
2018-06-24T10:48:20.293Z,20.84
2018-06-24T10:49:20.278Z,20.81
2018-06-24T10:50:20.162Z,20.83
2018-06-24T10:51:20.517Z,20.85
2018-06-24T10:52:20.222Z,20.86
2018-06-24T10:53:20.451Z,20.85
2018-06-24T10:54:20.351Z,20.84
2018-06-24T10:55:20.538Z,20.85
2018-06-24T10:56:20.235Z,20.86
2018-06-24T10:57:20.337Z,20.86
2018-06-24T10:58:20.652Z,20.88
2018-06-24T10:59:20.117Z,20.88
2018-06-24T11:00:20.206Z,20.87
2018-06-24T11:01:20.319Z,20.91
2018-06-24T11:02:21.017Z,20.91
2018-06-24T11:03:20.562Z,20.91
2018-06-24T11:04:20.320Z,20.91
2018-06-24T11:05:20.165Z,20.9
2018-06-24T11:06:20.324Z,20.9
2018-06-24T11:07:20.530Z,20.91
2018-06-24T11:08:20.175Z,20.92
2018-06-24T11:09:20.282Z,20.91
2018-06-24T11:10:20.342Z,20.92
2018-06-24T11:11:20.450Z,20.92
2018-06-24T11:12:20.406Z,20.92
2018-06-24T11:13:20.541Z,20.91
2018-06-24T11:14:20.326Z,20.92
2018-06-24T11:15:20.399Z,20.96
2018-06-24T11:16:20.219Z,20.94
2018-06-24T11:17:20.187Z,20.92
2018-06-24T11:18:20.356Z,20.92
2018-06-24T11:19:20.266Z,20.96
2018-06-24T11:20:20.152Z,20.96
2018-06-24T11:21:20.194Z,20.95
2018-06-24T11:22:20.284Z,20.99
2018-06-24T11:23:20.313Z,21
2018-06-24T11:24:20.371Z,21.02
2018-06-24T11:25:20.308Z,21
2018-06-24T11:26:20.137Z,21
2018-06-24T11:27:20.268Z,20.96
2018-06-24T11:28:20.289Z,21
2018-06-24T11:29:20.183Z,21
2018-06-24T11:30:20.334Z,21.01
2018-06-24T11:31:20.133Z,20.99
2018-06-24T11:32:20.345Z,20.96
2018-06-24T11:33:20.357Z,20.96
2018-06-24T11:34:20.265Z,20.94
2018-06-24T11:35:20.180Z,20.94
2018-06-24T11:36:20.406Z,20.95
2018-06-24T11:37:20.452Z,20.92
2018-06-24T11:38:20.757Z,20.95
2018-06-24T11:39:20.375Z,20.94
2018-06-24T11:40:20.433Z,20.94
2018-06-24T11:41:20.506Z,20.92
2018-06-24T11:42:20.373Z,20.95
2018-06-24T11:43:20.355Z,20.93
2018-06-24T11:44:20.141Z,20.93
2018-06-24T11:45:20.404Z,20.93
2018-06-24T11:46:20.371Z,20.91
2018-06-24T11:47:20.402Z,20.92
2018-06-24T11:48:20.233Z,20.93
2018-06-24T11:49:20.465Z,20.94
2018-06-24T11:50:20.437Z,20.91
2018-06-24T11:51:20.632Z,20.92
2018-06-24T11:52:20.444Z,20.93
2018-06-24T11:53:20.237Z,20.92
2018-06-24T11:54:20.434Z,20.92
2018-06-24T11:55:20.254Z,20.92
2018-06-24T11:56:20.406Z,20.9
2018-06-24T11:57:20.313Z,20.91
2018-06-24T11:58:20.392Z,20.93
2018-06-24T11:59:20.301Z,20.89
2018-06-24T12:00:20.315Z,20.88
2018-06-24T12:01:20.360Z,20.84
2018-06-24T12:02:20.328Z,20.84
2018-06-24T12:03:20.429Z,20.81
2018-06-24T12:04:20.294Z,20.81
2018-06-24T12:05:20.512Z,20.84
2018-06-24T12:06:20.317Z,20.85
2018-06-24T12:07:20.308Z,20.91
2018-06-24T12:08:20.359Z,20.88
2018-06-24T12:09:20.365Z,20.87
2018-06-24T12:10:20.356Z,20.91
2018-06-24T12:11:20.367Z,20.92
2018-06-24T12:12:20.306Z,20.88
2018-06-24T12:13:20.332Z,20.9
2018-06-24T12:14:20.308Z,20.92
2018-06-24T12:15:20.567Z,20.94
2018-06-24T12:16:20.391Z,20.93
2018-06-24T12:17:20.403Z,20.96
2018-06-24T12:18:21.194Z,20.99
2018-06-24T12:19:20.405Z,20.96
2018-06-24T12:20:20.302Z,20.96
2018-06-24T12:21:20.418Z,21
2018-06-24T12:22:20.340Z,20.98
2018-06-24T12:23:20.438Z,21.02
2018-06-24T12:24:20.273Z,21.02
2018-06-24T12:25:20.305Z,21.02
2018-06-24T12:26:20.368Z,21.02
2018-06-24T12:27:20.215Z,21.02
2018-06-24T12:28:20.450Z,20.99
2018-06-24T12:29:20.328Z,20.96
2018-06-24T12:30:20.195Z,21
2018-06-24T12:31:20.131Z,21
2018-06-24T12:32:20.410Z,21
2018-06-24T12:33:20.214Z,21
2018-06-24T12:34:20.164Z,20.99
2018-06-24T12:35:20.352Z,21.01
2018-06-24T12:36:20.355Z,21.02
2018-06-24T12:37:20.381Z,21
2018-06-24T12:38:20.397Z,20.99
2018-06-24T12:39:20.163Z,21.03
2018-06-24T12:40:20.149Z,21.15
2018-06-24T12:41:20.244Z,21.1
2018-06-24T12:42:20.454Z,21.08
2018-06-24T12:43:20.635Z,21.06
2018-06-24T12:44:20.441Z,21.08
2018-06-24T12:45:20.265Z,21.06
2018-06-24T12:46:20.611Z,21.07
2018-06-24T12:47:20.288Z,21.07
2018-06-24T12:48:20.192Z,21.06
2018-06-24T12:49:20.114Z,21.07
2018-06-24T12:50:20.338Z,21.06
2018-06-24T12:51:20.367Z,21.06
2018-06-24T12:52:20.303Z,21.06
2018-06-24T12:53:20.259Z,21.07
2018-06-24T12:54:20.447Z,21.09
2018-06-24T12:55:20.308Z,21.1